Time;durP1;ratioP1;P1;durP2;ratioP2;P2;SDS_P1;SDS_P2;PMS_P1;PMS_P2;Temp;Humidity;BMP_temperature;BMP_pressure;BME280_temperature;BME280_humidity;BME280_pressure;Samples;Min_cycle;Max_cycle;Signal;HPM_P1;HPM_P2
2023/04/14 00:02:26;;;;;;;;;;;;;;;;;;;;;
2023/04/14 00:09:07;;;;;;;4.60;1.80;;;;;;;5.64;68.44;94783.81;5896510;24;20173;-85
2023/04/14 00:15:57;;;;;;;6.20;2.10;;;;;;;5.71;68.75;94779.72;5890585;24;20364;-84
2023/04/14 00:21:58;;;;;;;9.77;2.27;;;;;;;5.64;69.00;94770.91;5894050;24;20199;-84
2023/04/14 00:28:08;;;;;;;4.93;1.83;;;;;;;5.59;69.39;94755.09;5922515;24;20513;-83
2023/04/14 00:30:52;;;;;;;9.80;2.17;;;;;;;5.58;69.40;94764.56;5922365;24;20161;-85
2023/04/14 00:34:11;;;;;;;;;;;;;;;;;;;;;
2023/04/14 00:46:56;;;;;;;6.73;1.97;;;;;;;5.30;69.79;94776.50;5894411;24;20583;-85
2023/04/14 00:49:22;;;;;;;7.67;2.13;;;;;;;5.22;70.29;94770.38;5851575;24;20253;-85
2023/04/14 00:51:47;;;;;;;8.03;2.23;;;;;;;5.18;70.48;94767.25;5892136;24;20221;-85
2023/04/14 00:54:14;;;;;;;8.97;2.20;;;;;;;5.15;70.39;94767.53;5891688;24;20174;-84
2023/04/14 00:56:40;;;;;;;9.03;2.43;;;;;;;5.15;70.58;94767.53;5891234;24;20578;-85
2023/04/14 00:59:06;;;;;;;7.97;2.27;;;;;;;5.16;70.18;94771.72;5914536;24;20165;-84
2023/04/14 01:01:35;;;;;;;6.60;2.17;;;;;;;5.10;70.80;94772.25;5912751;24;20253;-86
2023/04/14 01:04:01;;;;;;;8.73;1.97;;;;;;;5.11;70.85;94768.72;5908593;24;20169;-85
2023/04/14 01:06:27;;;;;;;9.47;2.30;;;;;;;5.07;70.81;94775.09;5899651;24;20543;-85
2023/04/14 01:08:52;;;;;;;6.33;2.33;;;;;;;5.01;70.60;94789.31;5927686;24;20168;-85
2023/04/14 01:11:50;;;;;;;5.63;2.00;;;;;;;5.05;70.16;94785.53;5928431;24;20549;-84
2023/04/14 01:14:31;;;;;;;5.97;1.80;;;;;;;5.10;70.26;94785.13;5952748;24;20168;-87
2023/04/14 01:17:05;;;;;;;10.17;2.23;;;;;;;5.00;70.82;94792.81;6093450;23;20282;-86
2023/04/14 01:19:50;;;;;;;7.40;2.03;;;;;;;4.96;70.80;94794.03;6095104;22;20161;-86
2023/04/14 01:22:17;;;;;;;7.73;2.00;;;;;;;4.95;70.44;94796.75;6249797;22;20824;-86
2023/04/14 01:25:07;;;;;;;7.93;2.17;;;;;;;4.94;70.50;94795.09;6225530;22;20161;-86
2023/04/14 01:27:50;;;;;;;6.67;1.77;;;;;;;4.94;70.73;94795.09;6250040;22;20694;-86
2023/04/14 01:30:58;;;;;;;5.20;2.23;;;;;;;4.95;70.55;94801.91;6226745;22;20159;-84
2023/04/14 01:33:35;;;;;;;6.00;2.47;;;;;;;4.95;70.48;94801.91;6225778;22;20251;-86
2023/04/14 01:36:08;;;;;;;7.40;2.53;;;;;;;4.88;70.28;94806.75;6225486;22;20204;-85
2023/04/14 01:38:35;;;;;;;7.10;2.17;;;;;;;4.88;70.20;94804.19;6225616;22;20194;-84
2023/04/14 01:41:05;;;;;;;5.87;2.00;;;;;;;4.87;70.26;94799.16;6225743;22;20152;-83
2023/04/14 01:43:33;;;;;;;10.00;2.13;;;;;;;4.88;70.05;94804.19;6250889;22;20145;-84
2023/04/14 01:46:06;;;;;;;6.20;2.13;;;;;;;4.93;70.10;94807.16;6249966;22;20626;-85
2023/04/14 01:48:32;;;;;;;7.17;2.30;;;;;;;4.90;70.32;94809.19;6225959;22;20157;-84
2023/04/14 01:50:58;;;;;;;6.53;1.83;;;;;;;4.90;70.16;94806.63;6225680;22;20156;-84
2023/04/14 01:53:25;;;;;;;11.10;2.10;;;;;;;4.84;70.19;94808.75;6224978;22;20167;-84
2023/04/14 01:55:51;;;;;;;10.50;1.83;;;;;;;4.80;70.51;94814.31;6223870;22;20184;-82
2023/04/14 01:58:17;;;;;;;6.83;2.43;;;;;;;4.76;70.48;94810.34;6224955;22;20238;-84
2023/04/14 02:00:44;;;;;;;11.77;2.53;;;;;;;4.71;70.40;94807.38;6252286;22;20160;-84
2023/04/14 02:03:10;;;;;;;6.80;2.60;;;;;;;4.68;70.77;94805.03;6226596;22;20243;-83
2023/04/14 02:05:37;;;;;;;5.40;1.97;;;;;;;4.62;70.58;94814.09;6250368;22;20173;-83
2023/04/14 02:08:06;;;;;;;7.67;2.60;;;;;;;4.59;71.01;94809.19;6249875;22;20156;-83
2023/04/14 02:10:32;;;;;;;8.60;2.37;;;;;;;4.49;71.23;94808.34;6250221;22;20529;-86
2023/04/14 02:12:59;;;;;;;7.10;1.97;;;;;;;4.44;71.43;94818.22;6224785;22;20214;-83
2023/04/14 02:15:27;;;;;;;11.50;2.23;;;;;;;4.42;71.88;94820.09;6224791;22;20184;-83
2023/04/14 02:17:54;;;;;;;6.07;1.73;;;;;;;4.44;71.60;94813.06;6249884;22;20524;-85
2023/04/14 02:20:20;;;;;;;6.23;1.97;;;;;;;4.37;71.66;94819.66;6225000;22;20164;-83
2023/04/14 02:22:46;;;;;;;9.63;2.17;;;;;;;4.40;71.39;94816.81;6225131;22;20174;-82
2023/04/14 02:25:11;;;;;;;7.17;1.67;;;;;;;4.38;71.48;94816.97;6224899;22;20165;-82
2023/04/14 02:27:55;;;;;;;9.97;2.40;;;;;;;4.36;71.78;94816.28;6224159;22;20176;-85
2023/04/14 02:30:23;;;;;;;6.03;2.03;;;;;;;4.35;71.78;94819.78;6224798;22;20160;-83
2023/04/14 02:32:55;;;;;;;10.10;2.20;;;;;;;4.30;72.16;94821.09;6225703;22;20259;-84
2023/04/14 02:35:29;;;;;;;12.60;2.30;;;;;;;4.24;72.56;94823.25;6225139;22;20553;-82
2023/04/14 02:37:59;;;;;;;6.90;1.70;;;;;;;4.25;72.38;94817.19;6224341;22;20180;-84
2023/04/14 02:40:35;;;;;;;7.10;2.27;;;;;;;4.23;72.38;94816.47;6250740;22;20148;-85
2023/04/14 02:43:04;;;;;;;8.57;2.00;;;;;;;4.25;72.70;94816.38;6250464;22;20250;-85
2023/04/14 02:45:32;;;;;;;7.60;2.77;;;;;;;4.19;72.74;94814.28;6224806;22;20162;-84
2023/04/14 02:48:01;;;;;;;7.60;2.40;;;;;;;4.18;72.88;94817.81;6222196;22;20185;-86
2023/04/14 02:50:28;;;;;;;7.13;2.50;;;;;;;4.15;72.89;94824.03;6223074;22;20164;-84
2023/04/14 02:52:54;;;;;;;13.60;2.00;;;;;;;4.10;73.07;94817.63;6224735;22;20161;-83
2023/04/14 02:55:20;;;;;;;7.03;2.83;;;;;;;4.08;73.20;94817.75;6250503;22;20217;-84
2023/04/14 02:57:46;;;;;;;7.80;2.17;;;;;;;4.10;72.87;94815.88;6224372;22;20184;-83
2023/04/14 03:00:12;;;;;;;10.17;2.30;;;;;;;4.04;73.54;94815.53;6250820;22;20179;-83
2023/04/14 03:02:38;;;;;;;5.00;2.20;;;;;;;4.05;73.03;94812.84;6224852;22;20171;-84
2023/04/14 03:05:04;;;;;;;9.37;2.37;;;;;;;4.05;73.03;94815.41;6226745;22;20243;-84
2023/04/14 03:07:30;;;;;;;7.47;1.90;;;;;;;4.05;73.09;94817.16;6226364;22;20228;-85
2023/04/14 03:09:56;;;;;;;8.83;2.50;;;;;;;4.03;73.05;94817.31;6226568;22;20160;-85
2023/04/14 03:12:28;;;;;;;7.20;2.20;;;;;;;4.05;73.04;94817.97;6226161;22;20152;-84
2023/04/14 03:14:54;;;;;;;6.87;2.17;;;;;;;4.08;72.46;94812.59;6226405;22;20159;-85
2023/04/14 03:17:20;;;;;;;6.73;2.10;;;;;;;4.12;72.42;94824.25;6228337;22;20199;-84
2023/04/14 03:19:47;;;;;;;5.20;1.67;;;;;;;4.06;72.36;94814.47;6239010;22;20206;-85
2023/04/14 03:22:14;;;;;;;6.23;2.30;;;;;;;4.11;72.08;94820.06;6230085;22;20221;-85
2023/04/14 03:24:41;;;;;;;6.30;1.90;;;;;;;4.06;72.02;94824.75;6229571;22;20191;-85
2023/04/14 03:27:11;;;;;;;6.00;2.17;;;;;;;4.04;72.38;94815.53;6228262;22;20225;-85
2023/04/14 03:29:43;;;;;;;7.97;2.03;;;;;;;4.08;71.83;94822.88;6228054;22;20160;-85
2023/04/14 03:32:09;;;;;;;4.40;1.77;;;;;;;4.09;71.55;94823.69;6255455;22;20502;-86
2023/04/14 03:34:37;;;;;;;7.93;2.00;;;;;;;4.08;71.47;94820.31;6229780;22;20160;-85
2023/04/14 03:37:04;;;;;;;9.17;2.27;;;;;;;4.03;71.97;94819.06;6227727;22;20266;-84
2023/04/14 03:39:31;;;;;;;3.53;1.67;;;;;;;4.07;71.68;94821.25;6228865;22;20165;-86
2023/04/14 03:41:58;;;;;;;9.57;2.30;;;;;;;4.10;71.57;94821.00;6253371;22;20584;-84
2023/04/14 03:44:25;;;;;;;3.47;1.50;;;;;;;4.13;71.65;94828.44;6227467;22;20156;-85
2023/04/14 03:46:50;;;;;;;5.33;2.03;;;;;;;4.16;71.10;94823.06;6252982;22;20171;-85
2023/04/14 03:49:16;;;;;;;6.27;1.90;;;;;;;4.17;71.23;94819.56;6227805;22;20216;-84
2023/04/14 03:51:44;;;;;;;8.37;1.70;;;;;;;4.20;71.70;94818.50;6228390;22;20205;-84
2023/04/14 03:54:10;;;;;;;4.87;1.47;;;;;;;4.17;71.23;94819.56;6228798;22;20677;-82
2023/04/14 03:56:38;;;;;;;7.20;2.10;;;;;;;4.23;71.16;94815.66;6236176;22;20242;-86
2023/04/14 03:59:06;;;;;;;3.13;1.50;;;;;;;4.30;70.69;94819.34;6232679;22;20590;-85
2023/04/14 04:01:31;;;;;;;6.13;1.93;;;;;;;4.29;70.73;94822.06;6228547;22;20164;-84
2023/04/14 04:03:59;;;;;;;9.63;2.50;;;;;;;4.25;71.15;94808.66;6226862;22;20733;-85
2023/04/14 04:06:25;;;;;;;3.10;1.80;;;;;;;4.20;71.31;94819.31;6253561;22;20239;-86
2023/04/14 04:08:51;;;;;;;5.13;1.83;;;;;;;4.13;71.50;94818.16;6280921;22;20183;-86
2023/04/14 04:11:19;;;;;;;6.73;1.47;;;;;;;4.13;71.70;94822.50;6225953;22;20170;-87
2023/04/14 04:13:46;;;;;;;8.23;2.07;;;;;;;4.08;71.90;94819.50;6226951;22;20156;-86
2023/04/14 04:16:12;;;;;;;5.63;1.40;;;;;;;4.05;71.20;94823.13;6250194;22;20278;-84
2023/04/14 04:18:38;;;;;;;4.20;1.57;;;;;;;4.09;70.90;94827.09;6225262;22;20159;-85
2023/04/14 04:21:05;;;;;;;7.03;1.70;;;;;;;4.12;70.60;94824.25;6225939;22;20808;-86
2023/04/14 04:23:31;;;;;;;6.20;1.73;;;;;;;4.14;70.06;94824.94;6227482;22;20183;-85
2023/04/14 04:25:57;;;;;;;2.77;1.40;;;;;;;4.10;70.22;94823.56;6226831;22;20199;-86
2023/04/14 04:28:22;;;;;;;5.43;1.63;;;;;;;4.12;70.10;94826.81;6228655;22;20486;-86
2023/04/14 04:30:49;;;;;;;4.37;1.10;;;;;;;4.06;70.22;94816.22;6228753;22;20240;-84
2023/04/14 04:33:15;;;;;;;3.40;1.60;;;;;;;4.11;69.59;94825.19;6252722;22;20148;-85
2023/04/14 04:35:41;;;;;;;6.70;1.83;;;;;;;4.09;70.08;94824.50;6226536;22;20200;-85
2023/04/14 04:38:10;;;;;;;4.93;1.17;;;;;;;4.10;69.21;94826.13;6225937;22;20159;-85
2023/04/14 04:40:37;;;;;;;6.03;1.40;;;;;;;4.09;69.28;94824.50;6227371;22;20476;-85
2023/04/14 04:43:02;;;;;;;3.30;1.30;;;;;;;4.16;68.99;94830.78;6252150;22;20149;-84
2023/04/14 04:46:11;;;;;;;3.90;1.70;;;;;;;4.12;69.38;94829.38;6226885;22;20171;-86
2023/04/14 04:48:37;;;;;;;6.50;1.57;;;;;;;4.08;69.80;94830.59;6226196;22;20586;-86
2023/04/14 04:51:02;;;;;;;4.13;1.47;;;;;;;4.18;68.93;94834.03;6226718;22;20241;-85
2023/04/14 04:53:27;;;;;;;5.80;1.73;;;;;;;4.20;69.51;94832.16;6226371;22;20215;-86
2023/04/14 04:55:53;;;;;;;5.40;1.50;;;;;;;4.22;69.16;94830.25;6224514;22;20183;-86
2023/04/14 04:58:18;;;;;;;2.90;1.50;;;;;;;4.28;68.86;94834.09;6225776;22;20152;-85
2023/04/14 05:00:43;;;;;;;4.10;1.27;;;;;;;4.29;68.79;94840.03;6226527;22;20187;-83
2023/04/14 05:03:08;;;;;;;2.73;1.30;;;;;;;4.38;68.72;94829.81;6225834;22;20159;-85
2023/04/14 05:05:35;;;;;;;2.77;1.10;;;;;;;4.49;68.60;94834.88;6225682;22;20153;-84
2023/04/14 05:08:01;;;;;;;3.03;1.17;;;;;;;4.55;67.89;94836.13;6223054;22;20214;-84
2023/04/14 05:10:26;;;;;;;3.50;1.40;;;;;;;4.50;68.42;94841.63;6224630;22;20612;-85
2023/04/14 05:12:51;;;;;;;3.83;1.40;;;;;;;4.62;67.59;94839.81;6224907;22;20525;-86
2023/04/14 05:15:17;;;;;;;7.40;2.33;;;;;;;4.66;67.06;94837.78;6224649;22;20152;-85
2023/04/14 05:17:42;;;;;;;4.77;1.80;;;;;;;4.84;66.17;94847.34;6224529;22;20231;-85
2023/04/14 05:20:08;;;;;;;6.90;1.50;;;;;;;4.89;66.15;94843.56;6224838;22;20160;-86
2023/04/14 05:22:33;;;;;;;3.60;1.90;;;;;;;5.02;65.64;94854.44;6224821;22;20199;-86
2023/04/14 05:24:59;;;;;;;4.93;1.70;;;;;;;4.94;65.67;94852.50;6224415;22;20182;-85
2023/04/14 05:27:24;;;;;;;4.23;1.70;;;;;;;5.06;65.54;94853.25;6223558;22;20175;-86
2023/04/14 05:29:50;;;;;;;3.73;1.60;;;;;;;5.07;65.21;94860.84;6227881;22;20163;-85
2023/04/14 05:32:16;;;;;;;5.53;1.60;;;;;;;5.24;65.10;94864.53;6227069;22;20156;-86
2023/04/14 05:34:43;;;;;;;6.63;2.60;;;;;;;5.30;64.83;94864.03;6226601;22;20582;-86
2023/04/14 05:37:08;;;;;;;5.43;2.00;;;;;;;5.35;64.90;94855.88;6225326;22;20188;-85
2023/04/14 05:39:34;;;;;;;9.17;5.63;;;;;;;5.28;64.88;94855.59;6228260;22;20183;-85
2023/04/14 05:42:00;;;;;;;9.10;3.80;;;;;;;5.43;64.64;94860.38;6237055;22;20155;-86
2023/04/14 05:44:25;;;;;;;4.13;2.13;;;;;;;5.44;65.04;94857.66;6226529;22;20224;-87
2023/04/14 05:46:51;;;;;;;5.13;1.60;;;;;;;5.42;64.62;94862.16;6226012;22;20180;-87
2023/04/14 05:49:16;;;;;;;6.43;1.87;;;;;;;5.52;64.30;94865.53;6226498;22;20167;-85
2023/04/14 05:51:41;;;;;;;15.20;7.47;;;;;;;5.59;64.43;94858.91;6225946;22;20597;-86
2023/04/14 05:54:07;;;;;;;12.47;6.30;;;;;;;5.63;64.22;94867.19;6244022;22;20216;-86
2023/04/14 05:56:32;;;;;;;9.70;4.97;;;;;;;5.68;64.44;94867.59;6251390;22;20207;-82
2023/04/14 05:58:57;;;;;;;8.50;4.50;;;;;;;5.72;64.49;94870.72;6252107;22;20148;-80
2023/04/14 06:01:23;;;;;;;6.70;2.80;;;;;;;5.69;64.28;94872.63;6250685;22;20201;-81
2023/04/14 06:04:15;;;;;;;6.93;1.97;;;;;;;5.79;64.20;94864.88;6277323;22;20154;-84
2023/04/14 06:06:40;;;;;;;3.50;2.10;;;;;;;5.94;63.57;94873.88;6276848;22;20180;-85
2023/04/14 06:09:06;;;;;;;5.37;2.17;;;;;;;5.88;64.13;94869.22;6250574;22;20159;-85
2023/04/14 06:11:31;;;;;;;6.63;1.90;;;;;;;5.76;64.27;94872.91;6247573;22;20190;-86
2023/04/14 06:13:57;;;;;;;6.70;2.47;;;;;;;5.95;63.57;94874.69;6235225;22;20164;-86
2023/04/14 06:16:22;;;;;;;8.83;3.30;;;;;;;5.96;63.76;94871.97;6225905;22;20226;-86
2023/04/14 06:18:48;;;;;;;4.43;2.13;;;;;;;6.00;63.74;94869.13;6254402;22;20184;-85
2023/04/14 06:21:13;;;;;;;6.87;1.87;;;;;;;6.01;63.98;94866.44;6224604;22;20167;-86
2023/04/14 06:23:38;;;;;;;6.10;1.87;;;;;;;6.11;63.84;94877.53;6223947;22;20156;-84
2023/04/14 06:29:26;;;;;;;3.97;1.30;;;;;;;6.25;62.81;94873.72;6276849;22;20152;-85
2023/04/14 06:31:51;;;;;;;4.10;1.63;;;;;;;6.29;62.57;94869.13;6222837;22;20169;-84
2023/04/14 06:34:17;;;;;;;3.90;1.60;;;;;;;6.43;62.48;94869.47;6225740;22;20153;-83
2023/04/14 06:36:42;;;;;;;3.87;1.47;;;;;;;6.44;62.22;94872.88;6223829;22;20282;-86
2023/04/14 06:39:07;;;;;;;3.13;1.43;;;;;;;6.45;62.10;94869.38;6226976;22;20597;-83
2023/04/14 06:41:33;;;;;;;6.33;2.47;;;;;;;6.55;62.06;94869.34;6251912;22;20176;-85
2023/04/14 06:43:58;;;;;;;4.03;1.60;;;;;;;6.51;62.32;94872.19;6227798;22;20157;-85
2023/04/14 06:46:23;;;;;;;4.43;1.40;;;;;;;6.59;61.80;94874.06;6227024;22;20175;-85
2023/04/14 06:48:49;;;;;;;5.33;1.80;;;;;;;6.66;61.53;94876.91;6253394;22;20243;-84
2023/04/14 06:51:14;;;;;;;5.60;1.73;;;;;;;6.73;61.17;94875.41;6228195;22;20157;-86
2023/04/14 06:53:40;;;;;;;4.33;1.63;;;;;;;6.77;61.36;94866.41;6229869;22;20168;-83
2023/04/14 06:56:06;;;;;;;3.73;1.67;;;;;;;6.81;60.99;94872.94;6229678;22;20191;-85
2023/04/14 06:58:31;;;;;;;5.37;1.60;;;;;;;6.70;60.45;94867.94;6227867;22;20261;-84
2023/04/14 07:00:58;;;;;;;6.10;2.13;;;;;;;6.93;60.85;94865.81;6253674;22;20290;-84
2023/04/14 07:03:24;;;;;;;4.30;1.60;;;;;;;6.84;60.58;94862.31;6229576;22;20577;-84
2023/04/14 07:05:49;;;;;;;5.87;2.20;;;;;;;6.90;60.88;94859.19;6228276;22;20149;-84
2023/04/14 07:08:18;;;;;;;7.77;2.97;;;;;;;7.10;60.41;94862.50;6228793;22;20160;-85
2023/04/14 07:10:44;;;;;;;5.50;2.00;;;;;;;7.15;59.50;94849.94;6255427;22;20156;-84
2023/04/14 07:13:09;;;;;;;8.50;2.13;;;;;;;7.26;59.49;94856.72;6229677;22;20486;-85
2023/04/14 07:15:34;;;;;;;4.13;2.20;;;;;;;7.25;59.40;94863.66;6231669;22;20623;-84
2023/04/14 07:18:00;;;;;;;7.30;1.90;;;;;;;7.24;58.62;94858.59;6232336;22;20562;-85
2023/04/14 07:20:31;;;;;;;4.73;1.80;;;;;;;7.45;59.07;94858.38;6233887;22;20156;-86
2023/04/14 07:22:56;;;;;;;5.27;1.77;;;;;;;7.49;59.60;94847.59;6231674;22;20175;-86
2023/04/14 07:25:22;;;;;;;5.93;1.40;;;;;;;7.64;59.35;94846.13;6231065;22;20161;-85
2023/04/14 07:27:47;;;;;;;5.03;1.60;;;;;;;7.63;58.62;94839.34;6229599;22;20187;-86
2023/04/14 07:30:13;;;;;;;6.37;1.73;;;;;;;7.72;58.64;94839.41;6230286;22;20460;-87
2023/04/14 07:32:38;;;;;;;4.20;1.40;;;;;;;7.78;58.15;94842.25;6229839;22;20167;-85
2023/04/14 07:35:04;;;;;;;5.97;1.80;;;;;;;7.81;58.03;94841.94;6228281;22;20148;-84
2023/04/14 07:37:29;;;;;;;5.70;1.40;;;;;;;7.85;57.64;94839.84;6252030;22;20242;-84
2023/04/14 07:39:55;;;;;;;4.10;1.70;;;;;;;7.95;57.08;94836.25;6227612;22;20160;-85
2023/04/14 07:42:20;;;;;;;4.13;1.73;;;;;;;7.99;57.26;94836.75;6227765;22;20157;-84
2023/04/14 07:44:45;;;;;;;6.40;1.37;;;;;;;8.05;57.58;94846.50;6228231;22;20157;-85
2023/04/14 07:47:11;;;;;;;7.53;1.33;;;;;;;7.84;55.23;94840.81;6227452;22;20263;-83
2023/04/14 07:49:36;;;;;;;5.57;1.83;;;;;;;8.08;55.24;94842.81;6228284;22;20153;-85
2023/04/14 07:52:01;;;;;;;4.97;1.53;;;;;;;7.99;55.51;94846.28;6226944;22;20156;-84
2023/04/14 07:54:27;;;;;;;3.23;1.47;;;;;;;7.88;55.34;94839.56;6224612;22;20183;-84
2023/04/14 07:56:52;;;;;;;4.30;1.60;;;;;;;7.93;56.05;94845.09;6249986;22;20263;-84
2023/04/14 07:59:18;;;;;;;3.20;1.47;;;;;;;8.14;55.32;94843.03;6222538;22;20167;-85
2023/04/14 08:01:43;;;;;;;4.07;1.30;;;;;;;8.41;55.21;94843.91;6223990;22;20157;-84
2023/04/14 08:04:08;;;;;;;2.70;1.10;;;;;;;8.38;54.16;94844.19;6223701;22;20597;-84
2023/04/14 08:06:34;;;;;;;6.27;1.40;;;;;;;8.23;54.74;94836.97;6224633;22;20179;-85
2023/04/14 08:08:59;;;;;;;9.13;1.97;;;;;;;8.22;53.23;94845.69;6225428;22;20161;-85
2023/04/14 08:11:24;;;;;;;4.80;1.40;;;;;;;8.13;53.18;94838.81;6224998;22;20156;-86
2023/04/14 08:13:51;;;;;;;5.27;1.40;;;;;;;8.49;53.86;94831.84;6250484;22;20539;-85
2023/04/14 08:16:17;;;;;;;3.93;1.90;;;;;;;8.56;53.18;94836.38;6223902;22;20184;-84
2023/04/14 08:18:43;;;;;;;4.10;1.47;;;;;;;8.38;52.69;94845.00;6228161;22;20240;-85
2023/04/14 08:21:08;;;;;;;3.27;1.90;;;;;;;8.76;52.75;94848.16;6233871;22;20222;-84
2023/04/14 08:23:34;;;;;;;3.93;1.40;;;;;;;8.77;52.00;94848.00;6232158;22;20145;-85
2023/04/14 08:25:59;;;;;;;4.17;1.30;;;;;;;8.71;51.66;94847.81;6272669;22;20160;-85
2023/04/14 08:28:25;;;;;;;7.97;2.20;;;;;;;8.80;52.26;94852.88;6259574;22;20152;-87
2023/04/14 08:30:50;;;;;;;3.00;1.20;;;;;;;9.02;52.42;94851.53;6230737;22;20181;-87
2023/04/14 08:33:15;;;;;;;3.60;1.80;;;;;;;8.81;52.15;94848.50;6231671;22;20171;-86
2023/04/14 08:35:41;;;;;;;4.80;1.63;;;;;;;8.97;51.22;94850.38;6230967;22;20940;-86
2023/04/14 08:38:06;;;;;;;4.43;1.57;;;;;;;8.93;50.41;94856.84;6231186;22;20167;-86
2023/04/14 08:40:39;;;;;;;5.67;1.80;;;;;;;9.19;50.01;94849.84;6231821;22;20157;-85
2023/04/14 08:43:05;;;;;;;5.97;1.37;;;;;;;9.05;49.95;94858.19;6231158;22;20150;-86
2023/04/14 08:45:37;;;;;;;3.13;1.23;;;;;;;9.03;49.27;94854.94;6230693;22;20165;-87
2023/04/14 08:48:03;;;;;;;3.13;1.27;;;;;;;9.05;47.52;94845.22;6230911;22;20192;-86
2023/04/14 08:50:35;;;;;;;7.50;1.63;;;;;;;9.24;49.29;94852.75;6230249;22;20286;-87
2023/04/14 08:53:03;;;;;;;4.70;2.00;;;;;;;9.27;50.06;94857.59;6230316;22;20254;-86
2023/04/14 08:55:29;;;;;;;6.27;1.70;;;;;;;9.33;50.25;94856.19;6256620;22;20212;-85
2023/04/14 08:57:54;;;;;;;5.47;1.90;;;;;;;9.28;48.59;94856.66;6227640;22;20177;-86
2023/04/14 09:00:20;;;;;;;2.63;1.30;;;;;;;9.41;48.00;94853.63;6256272;22;20174;-85
2023/04/14 09:02:46;;;;;;;5.00;1.40;;;;;;;9.58;48.42;94852.69;6229886;22;20206;-85
2023/04/14 09:05:11;;;;;;;10.70;2.17;;;;;;;9.63;48.84;94847.88;6231315;22;20164;-85
2023/04/14 09:07:37;;;;;;;6.13;1.80;;;;;;;9.60;48.79;94840.38;6228213;22;20180;-86
2023/04/14 09:10:03;;;;;;;3.77;1.37;;;;;;;9.61;46.19;94838.59;6252582;22;20152;-85
2023/04/14 09:12:35;;;;;;;3.77;1.43;;;;;;;9.80;46.31;94842.69;6226848;22;20595;-87
2023/04/14 09:15:01;;;;;;;4.50;1.87;;;;;;;9.84;48.06;94833.63;6227761;22;20164;-87
2023/04/14 09:17:32;;;;;;;5.33;2.40;;;;;;;9.90;48.52;94838.19;6227422;22;20188;-84
2023/04/14 09:19:58;;;;;;;4.10;1.43;;;;;;;9.68;48.21;94836.19;6227902;22;20164;-85
2023/04/14 09:22:23;;;;;;;3.60;1.70;;;;;;;9.88;48.09;94835.72;6226549;22;20623;-87
2023/04/14 09:24:49;;;;;;;3.03;1.43;;;;;;;10.02;46.25;94836.09;6227564;22;20161;-86
2023/04/14 09:27:15;;;;;;;5.07;1.33;;;;;;;10.15;45.89;94836.41;6226022;22;20247;-85
2023/04/14 09:29:40;;;;;;;7.20;1.43;;;;;;;10.13;44.54;94831.38;6226819;22;20168;-85
2023/04/14 09:32:08;;;;;;;3.90;1.67;;;;;;;10.16;48.21;94838.03;6226472;22;20222;-86
2023/04/14 09:34:48;;;;;;;4.83;1.50;;;;;;;10.08;45.99;94838.03;6226118;22;20164;-86
2023/04/14 09:37:13;;;;;;;2.60;1.10;;;;;;;10.31;46.24;94835.63;6226987;22;20184;-85
2023/04/14 09:39:46;;;;;;;4.30;1.43;;;;;;;10.26;45.51;94837.91;6226685;22;20164;-87
2023/04/14 09:42:12;;;;;;;3.20;1.50;;;;;;;10.24;44.12;94835.44;6226238;22;20164;-85
2023/04/14 09:44:51;;;;;;;3.67;1.63;;;;;;;10.60;45.16;94835.09;6251457;22;20144;-84
2023/04/14 09:47:19;;;;;;;4.03;1.20;;;;;;;10.57;44.38;94844.03;6251231;22;20266;-86
2023/04/14 09:49:56;;;;;;;3.87;1.50;;;;;;;10.20;42.50;94836.72;6252914;22;20220;-84
2023/04/14 09:52:35;;;;;;;3.50;1.63;;;;;;;10.19;43.93;94838.53;6252914;22;20129;-84
2023/04/14 09:55:00;;;;;;;2.93;1.50;;;;;;;10.18;43.79;94841.28;6228883;22;20157;-87
2023/04/14 09:57:27;;;;;;;3.50;1.40;;;;;;;10.51;44.03;94847.28;6250958;22;20234;-85
2023/04/14 09:59:53;;;;;;;3.07;1.47;;;;;;;10.43;43.77;94845.53;6224468;22;20171;-83
2023/04/14 10:02:18;;;;;;;5.93;2.00;;;;;;;10.58;43.93;94844.84;6224895;22;20161;-84
2023/04/14 10:04:43;;;;;;;3.00;2.10;;;;;;;10.93;44.41;94841.84;6224760;22;20245;-84
2023/04/14 10:07:11;;;;;;;3.27;1.60;;;;;;;10.82;42.58;94847.41;6223804;22;20224;-88
2023/04/14 10:09:37;;;;;;;3.80;1.60;;;;;;;10.90;43.16;94842.19;6254779;22;20201;-85
2023/04/14 10:12:07;;;;;;;4.30;1.63;;;;;;;10.73;45.11;94840.59;6228334;22;20200;-84
2023/04/14 10:14:35;;;;;;;4.50;1.10;;;;;;;10.92;42.94;94837.63;6228076;22;20160;-84
2023/04/14 10:17:01;;;;;;;3.17;1.60;;;;;;;11.22;43.37;94837.84;6255345;22;20633;-85
2023/04/14 10:19:27;;;;;;;8.40;1.70;;;;;;;11.05;42.21;94834.53;6236446;22;20160;-83
2023/04/14 10:21:52;;;;;;;5.13;1.60;;;;;;;11.01;41.92;94836.63;6248252;22;20167;-83
2023/04/14 10:24:20;;;;;;;6.03;1.53;;;;;;;11.10;40.81;94829.63;6240228;22;20156;-86
2023/04/14 10:26:48;;;;;;;3.57;1.20;;;;;;;10.74;42.00;94829.25;6234326;22;20636;-85
2023/04/14 10:29:13;;;;;;;3.43;1.50;;;;;;;10.24;42.16;94825.06;6265653;22;20163;-84
2023/04/14 10:31:42;;;;;;;7.10;1.73;;;;;;;10.44;43.44;94818.59;6234072;22;20157;-86
2023/04/14 10:34:09;;;;;;;3.00;1.33;;;;;;;10.86;42.67;94820.09;6237402;22;20216;-84
2023/04/14 10:36:36;;;;;;;3.33;1.50;;;;;;;10.72;43.85;94819.03;6230025;22;20192;-84
2023/04/14 10:39:03;;;;;;;3.40;1.40;;;;;;;10.68;43.19;94822.09;6230208;22;20160;-87
2023/04/14 10:41:43;;;;;;;5.60;1.50;;;;;;;10.88;42.67;94810.38;6230860;22;20235;-87
2023/04/14 10:44:28;;;;;;;5.43;1.50;;;;;;;10.67;41.12;94807.50;6255613;22;20157;-86
2023/04/14 10:47:03;;;;;;;2.33;1.40;;;;;;;10.77;41.97;94808.13;6229137;22;20255;-87
2023/04/14 10:49:37;;;;;;;3.90;1.83;;;;;;;10.93;42.27;94805.47;6253654;22;20137;-86
2023/04/14 10:52:05;;;;;;;5.03;1.47;;;;;;;10.90;41.17;94794.63;6229395;22;20184;-86
2023/04/14 10:54:53;;;;;;;2.03;1.40;;;;;;;10.96;41.04;94791.38;6252048;22;20148;-86
2023/04/14 10:57:22;;;;;;;4.60;1.70;;;;;;;11.13;40.78;94792.09;6250310;22;20227;-83
2023/04/14 10:59:53;;;;;;;3.67;1.17;;;;;;;11.33;41.41;94788.09;6223864;22;20165;-86
2023/04/14 11:02:30;;;;;;;4.50;1.43;;;;;;;11.10;39.72;94790.63;6226422;22;20156;-86
2023/04/14 11:05:07;;;;;;;3.77;1.40;;;;;;;11.34;40.33;94776.72;6225143;22;20159;-86
2023/04/14 11:07:39;;;;;;;3.20;1.33;;;;;;;11.52;41.05;94777.28;6225479;22;20176;-86
2023/04/14 11:10:23;;;;;;;4.60;1.80;;;;;;;11.87;41.63;94781.13;6225994;22;20160;-86
2023/04/14 11:12:57;;;;;;;3.63;1.53;;;;;;;12.19;39.57;94784.44;6251212;22;20239;-86
2023/04/14 11:15:23;;;;;;;3.50;1.83;;;;;;;11.96;38.12;94771.47;6251554;22;20231;-83
2023/04/14 11:17:48;;;;;;;2.70;1.63;;;;;;;11.38;39.57;94770.19;6224266;22;20688;-86
2023/04/14 11:20:13;;;;;;;4.00;1.40;;;;;;;11.98;39.39;94769.50;6226055;22;20188;-86
2023/04/14 11:22:40;;;;;;;2.80;1.67;;;;;;;12.16;40.83;94763.97;6253492;22;20172;-85
2023/04/14 11:25:09;;;;;;;4.00;1.40;;;;;;;12.10;40.14;94765.50;6276925;22;20151;-84
2023/04/14 11:27:35;;;;;;;3.17;1.43;;;;;;;11.97;41.10;94761.88;6262954;22;20176;-86
2023/04/14 11:30:00;;;;;;;4.07;1.60;;;;;;;11.63;40.46;94757.84;6224621;22;20525;-86
2023/04/14 11:32:26;;;;;;;3.97;1.70;;;;;;;11.04;40.29;94758.38;6250791;22;20482;-86
2023/04/14 11:34:51;;;;;;;3.53;1.43;;;;;;;10.54;41.45;94750.91;6224120;22;20168;-86
2023/04/14 11:37:16;;;;;;;3.60;1.40;;;;;;;11.37;40.56;94749.56;6222433;22;20180;-85
2023/04/14 11:39:42;;;;;;;4.70;1.63;;;;;;;11.65;40.42;94753.28;6249220;22;20156;-85
2023/04/14 11:42:07;;;;;;;4.63;1.60;;;;;;;11.57;40.93;94754.16;6223995;22;20161;-85
2023/04/14 11:44:33;;;;;;;5.33;1.77;;;;;;;11.99;40.73;94747.69;6224296;22;20187;-85
2023/04/14 11:46:59;;;;;;;4.80;1.60;;;;;;;12.11;40.91;94743.69;6223573;22;20195;-85
2023/04/14 11:49:35;;;;;;;3.87;2.10;;;;;;;12.00;39.79;94751.09;6223528;22;20156;-85
2023/04/14 11:52:05;;;;;;;3.70;1.60;;;;;;;11.79;41.10;94742.13;6224394;22;20152;-86
2023/04/14 11:54:39;;;;;;;7.83;1.90;;;;;;;11.86;40.65;94744.88;6228956;22;20168;-85
2023/04/14 11:57:09;;;;;;;1.90;1.47;;;;;;;11.87;39.79;94742.09;6225433;22;20180;-86
2023/04/14 11:59:45;;;;;;;4.33;1.73;;;;;;;12.37;38.88;94743.28;6225082;22;20164;-84
2023/04/14 12:02:18;;;;;;;5.30;1.40;;;;;;;12.46;39.26;94738.81;6250786;22;20153;-83
2023/04/14 12:04:45;;;;;;;3.37;1.57;;;;;;;11.99;39.53;94739.06;6219039;22;20173;-81
2023/04/14 12:07:15;;;;;;;3.40;1.40;;;;;;;11.76;39.77;94731.28;6221675;22;20165;-83
2023/04/14 12:09:48;;;;;;;5.23;1.50;;;;;;;12.41;39.66;94733.31;6224752;22;20160;-84
2023/04/14 12:12:18;;;;;;;4.57;1.87;;;;;;;12.76;38.65;94735.22;6221627;22;20210;-85
2023/04/14 12:14:46;;;;;;;2.77;1.30;;;;;;;13.18;38.73;94727.72;6220705;22;20179;-84
2023/04/14 12:17:12;;;;;;;4.57;1.73;;;;;;;12.91;36.17;94729.19;6220821;22;20188;-82